sensor_id;sensor_type;location;lat;lon;timestamp;pressure;altitude;pressure_sealevel;temperature;humidity
9235;BME280;4652;42.716;23.218;2023-04-02T07:08:05;93998.75;;;30.40;31.33
9235;BME280;4652;42.716;23.218;2023-04-02T07:14:47;93990.13;;;28.72;33.04
9235;BME280;4652;42.716;23.218;2023-04-02T07:21:29;94004.31;;;29.52;31.33
9235;BME280;4652;42.716;23.218;2023-04-02T07:28:13;93990.25;;;32.13;29.70
9235;BME280;4652;42.716;23.218;2023-04-02T07:34:55;94008.16;;;32.37;29.54
9235;BME280;4652;42.716;23.218;2023-04-02T07:41:50;94002.97;;;32.86;28.43
9235;BME280;4652;42.716;23.218;2023-04-02T07:48:33;94018.19;;;33.06;27.70
9235;BME280;4652;42.716;23.218;2023-04-02T07:55:15;94016.53;;;31.32;28.55
9235;BME280;4652;42.716;23.218;2023-04-02T08:01:57;94006.47;;;28.39;30.92
9235;BME280;4652;42.716;23.218;2023-04-02T08:08:41;94022.34;;;23.79;36.74
9235;BME280;4652;42.716;23.218;2023-04-02T08:15:23;94031.91;;;21.02;41.14
9235;BME280;4652;42.716;23.218;2023-04-02T08:22:05;94040.72;;;18.93;44.95
9235;BME280;4652;42.716;23.218;2023-04-02T08:28:48;94038.75;;;17.39;47.49
9235;BME280;4652;42.716;23.218;2023-04-02T08:35:30;94045.31;;;16.79;49.09
9235;BME280;4652;42.716;23.218;2023-04-02T08:42:19;94027.59;;;17.44;47.18
9235;BME280;4652;42.716;23.218;2023-04-02T08:49:13;94046.41;;;18.31;48.03
9235;BME280;4652;42.716;23.218;2023-04-02T08:55:57;94039.06;;;17.06;49.79
9235;BME280;4652;42.716;23.218;2023-04-02T09:02:48;94041.25;;;17.32;48.86
9235;BME280;4652;42.716;23.218;2023-04-02T09:09:36;94048.91;;;18.04;47.50
9235;BME280;4652;42.716;23.218;2023-04-02T09:16:19;94023.94;;;16.65;49.53
9235;BME280;4652;42.716;23.218;2023-04-02T09:23:05;94058.94;;;16.15;50.66
9235;BME280;4652;42.716;23.218;2023-04-02T09:29:53;94061.22;;;15.88;50.42
9235;BME280;4652;42.716;23.218;2023-04-02T09:36:37;94038.38;;;16.54;49.68
9235;BME280;4652;42.716;23.218;2023-04-02T09:43:21;94022.31;;;16.36;49.75
9235;BME280;4652;42.716;23.218;2023-04-02T09:50:24;94022.31;;;16.36;49.75
9235;BME280;4652;42.716;23.218;2023-04-02T09:57:17;94005.84;;;16.17;50.99
9235;BME280;4652;42.716;23.218;2023-04-02T10:04:04;93999.28;;;16.18;49.73
9235;BME280;4652;42.716;23.218;2023-04-02T10:10:49;94002.56;;;16.52;50.34
9235;BME280;4652;42.716;23.218;2023-04-02T10:17:35;94019.00;;;16.83;49.63
9235;BME280;4652;42.716;23.218;2023-04-02T10:24:18;94010.84;;;16.98;49.21
9235;BME280;4652;42.716;23.218;2023-04-02T10:31:07;93993.94;;;16.89;48.87
9235;BME280;4652;42.716;23.218;2023-04-02T10:38:18;94009.44;;;16.21;50.18
9235;BME280;4652;42.716;23.218;2023-04-02T10:45:08;93997.38;;;17.18;50.09
9235;BME280;4652;42.716;23.218;2023-04-02T10:52:00;94002.25;;;16.96;49.03
9235;BME280;4652;42.716;23.218;2023-04-02T10:58:50;93983.78;;;16.46;49.71
9235;BME280;4652;42.716;23.218;2023-04-02T11:05:39;94002.19;;;16.37;48.09
9235;BME280;4652;42.716;23.218;2023-04-02T11:12:36;94003.25;;;16.21;48.71
9235;BME280;4652;42.716;23.218;2023-04-02T11:19:24;93990.06;;;16.90;49.25
9235;BME280;4652;42.716;23.218;2023-04-02T11:26:32;93988.44;;;17.64;48.21
9235;BME280;4652;42.716;23.218;2023-04-02T13:38:34;93924.78;;;16.75;45.50
9235;BME280;4652;42.716;23.218;2023-04-02T19:08:11;94140.69;;;9.24;90.78
9235;BME280;4652;42.716;23.218;2023-04-02T19:14:57;94136.44;;;8.91;96.35
9235;BME280;4652;42.716;23.218;2023-04-02T19:22:06;94119.94;;;8.83;94.07
9235;BME280;4652;42.716;23.218;2023-04-02T19:28:57;94127.16;;;8.69;94.12
9235;BME280;4652;42.716;23.218;2023-04-02T19:35:46;94136.28;;;8.68;94.43
9235;BME280;4652;42.716;23.218;2023-04-02T19:42:44;94140.72;;;8.59;88.65
9235;BME280;4652;42.716;23.218;2023-04-02T19:49:29;94132.84;;;8.12;89.56
9235;BME280;4652;42.716;23.218;2023-04-02T19:56:13;94163.13;;;7.94;94.10
9235;BME280;4652;42.716;23.218;2023-04-02T20:02:55;94175.94;;;7.54;98.37
9235;BME280;4652;42.716;23.218;2023-04-02T20:09:38;94170.22;;;7.42;100.00
9235;BME280;4652;42.716;23.218;2023-04-02T20:16:21;94169.00;;;7.30;100.00
9235;BME280;4652;42.716;23.218;2023-04-02T20:23:03;94178.97;;;7.24;100.00
9235;BME280;4652;42.716;23.218;2023-04-02T20:29:46;94165.25;;;7.02;100.00
9235;BME280;4652;42.716;23.218;2023-04-02T20:36:29;94161.13;;;6.86;100.00
9235;BME280;4652;42.716;23.218;2023-04-02T20:43:11;94181.13;;;6.65;100.00
9235;BME280;4652;42.716;23.218;2023-04-02T20:49:54;94178.31;;;6.51;100.00
9235;BME280;4652;42.716;23.218;2023-04-02T20:56:36;94184.25;;;6.43;100.00
9235;BME280;4652;42.716;23.218;2023-04-02T21:03:19;94178.75;;;6.24;100.00
9235;BME280;4652;42.716;23.218;2023-04-02T21:10:02;94175.94;;;6.06;100.00
9235;BME280;4652;42.716;23.218;2023-04-02T21:16:44;94201.31;;;6.03;100.00
9235;BME280;4652;42.716;23.218;2023-04-02T21:23:26;94196.56;;;5.95;100.00
9235;BME280;4652;42.716;23.218;2023-04-02T21:30:10;94199.00;;;5.86;100.00
9235;BME280;4652;42.716;23.218;2023-04-02T21:36:52;94201.41;;;5.78;100.00
9235;BME280;4652;42.716;23.218;2023-04-02T21:43:35;94220.16;;;5.73;100.00
9235;BME280;4652;42.716;23.218;2023-04-02T21:50:18;94207.38;;;5.60;100.00
9235;BME280;4652;42.716;23.218;2023-04-02T21:57:00;94211.91;;;5.59;100.00
9235;BME280;4652;42.716;23.218;2023-04-02T22:03:42;94218.84;;;5.65;100.00
9235;BME280;4652;42.716;23.218;2023-04-02T22:10:26;94214.63;;;5.49;100.00
9235;BME280;4652;42.716;23.218;2023-04-02T22:17:08;94174.69;;;5.24;100.00
9235;BME280;4652;42.716;23.218;2023-04-02T22:23:50;94218.66;;;5.42;100.00
9235;BME280;4652;42.716;23.218;2023-04-02T22:30:34;94224.56;;;5.28;100.00
9235;BME280;4652;42.716;23.218;2023-04-02T22:37:16;94215.50;;;5.19;100.00
9235;BME280;4652;42.716;23.218;2023-04-02T22:43:59;94218.19;;;5.14;100.00
9235;BME280;4652;42.716;23.218;2023-04-02T22:50:48;94202.47;;;5.08;100.00
9235;BME280;4652;42.716;23.218;2023-04-02T22:57:30;94212.28;;;5.22;100.00
9235;BME280;4652;42.716;23.218;2023-04-02T23:04:11;94222.72;;;5.09;100.00
9235;BME280;4652;42.716;23.218;2023-04-02T23:11:01;94235.03;;;4.85;100.00
9235;BME280;4652;42.716;23.218;2023-04-02T23:17:43;94226.75;;;4.76;100.00
9235;BME280;4652;42.716;23.218;2023-04-02T23:24:25;94203.56;;;4.41;100.00
9235;BME280;4652;42.716;23.218;2023-04-02T23:31:11;94210.25;;;4.39;100.00
9235;BME280;4652;42.716;23.218;2023-04-02T23:37:53;94223.28;;;4.30;100.00
9235;BME280;4652;42.716;23.218;2023-04-02T23:44:35;94221.44;;;4.46;100.00
9235;BME280;4652;42.716;23.218;2023-04-02T23:51:19;94204.09;;;4.48;100.00
9235;BME280;4652;42.716;23.218;2023-04-02T23:58:01;94211.31;;;4.53;100.00
